createdAt,value
2023-01-05T00:00:43.122Z,1001.32
2023-01-05T00:01:43.045Z,1001.26
2023-01-05T00:02:43.064Z,1001.29
2023-01-05T00:03:43.011Z,1001.18
2023-01-05T00:04:43.004Z,1001.27
2023-01-05T00:05:42.998Z,1001.32
2023-01-05T00:06:42.975Z,1001.33
2023-01-05T00:07:42.962Z,1001.29
2023-01-05T00:08:42.966Z,1001.12
2023-01-05T00:09:42.946Z,1001.32
2023-01-05T00:10:42.965Z,1001.26
2023-01-05T00:11:42.927Z,1001.28
2023-01-05T00:12:42.923Z,1001.35
2023-01-05T00:13:42.964Z,1001.23
2023-01-05T00:14:42.972Z,1001.27
2023-01-05T00:15:42.876Z,1001.31
2023-01-05T00:16:42.959Z,1001.31
2023-01-05T00:17:42.855Z,1001.43
2023-01-05T00:18:42.852Z,1001.35
2023-01-05T00:19:42.841Z,1001.27
2023-01-05T00:20:42.849Z,1001.27
2023-01-05T00:21:42.869Z,1001.31
2023-01-05T00:22:42.906Z,1001.32
2023-01-05T00:23:52.131Z,1001.29
2023-01-05T00:24:42.917Z,1001.36
2023-01-05T00:25:42.803Z,1001.31
2023-01-05T00:26:42.764Z,1001.41
2023-01-05T00:27:42.775Z,1001.40
2023-01-05T00:28:42.747Z,1001.43
2023-01-05T00:29:42.726Z,1001.40
2023-01-05T00:30:42.767Z,1001.46
2023-01-05T00:31:42.747Z,1001.40
2023-01-05T00:32:42.708Z,1001.27
2023-01-05T00:33:42.690Z,1001.44
2023-01-05T00:34:42.675Z,1001.34
2023-01-05T00:35:42.667Z,1001.45
2023-01-05T00:36:42.673Z,1001.39
2023-01-05T00:37:43.153Z,1001.40
2023-01-05T00:38:42.632Z,1001.46
2023-01-05T00:39:42.683Z,1001.47
2023-01-05T00:40:42.620Z,1001.37
2023-01-05T00:41:42.608Z,1001.47
2023-01-05T00:42:42.597Z,1001.31
2023-01-05T00:43:42.587Z,1001.27
2023-01-05T00:44:42.563Z,1001.38
2023-01-05T00:45:42.664Z,1001.29
2023-01-05T00:46:42.585Z,1001.26
2023-01-05T00:47:42.559Z,1001.30
2023-01-05T00:48:42.522Z,1001.42
2023-01-05T00:49:42.511Z,1001.25
2023-01-05T00:50:42.539Z,1001.27
2023-01-05T00:51:42.489Z,1001.31
2023-01-05T00:52:42.480Z,1001.16
2023-01-05T00:53:42.492Z,1001.23
2023-01-05T00:54:42.459Z,1001.31
2023-01-05T00:55:42.445Z,1001.32
2023-01-05T00:56:42.438Z,1001.32
2023-01-05T00:57:42.515Z,1001.30
2023-01-05T00:58:42.434Z,1001.32
2023-01-05T00:59:42.406Z,1001.37
2023-01-05T01:00:47.468Z,1001.30
2023-01-05T01:01:43.432Z,1001.29
2023-01-05T01:02:42.433Z,1001.30
2023-01-05T01:03:42.373Z,1001.32
2023-01-05T01:04:42.343Z,1001.27
2023-01-05T01:05:42.359Z,1001.26
2023-01-05T01:06:42.323Z,1001.26
2023-01-05T01:07:42.364Z,1001.40
2023-01-05T01:08:42.319Z,1001.32
2023-01-05T01:09:42.332Z,1001.33
2023-01-05T01:10:42.306Z,1001.29
2023-01-05T01:11:42.265Z,1001.22
2023-01-05T01:12:42.290Z,1001.31
2023-01-05T01:13:42.289Z,1001.28
2023-01-05T01:14:42.243Z,1001.37
2023-01-05T01:15:42.221Z,1001.36
2023-01-05T01:16:42.276Z,1001.33
2023-01-05T01:17:42.243Z,1001.30
2023-01-05T01:18:42.254Z,1001.35
2023-01-05T01:19:42.264Z,1001.30
2023-01-05T01:20:42.172Z,1001.41
2023-01-05T01:21:42.169Z,1001.36
2023-01-05T01:22:42.142Z,1001.36
2023-01-05T01:23:42.153Z,1001.35
2023-01-05T01:24:42.179Z,1001.32
2023-01-05T01:25:42.117Z,1001.30
2023-01-05T01:26:42.118Z,1001.43
2023-01-05T01:27:42.122Z,1001.43
2023-01-05T01:28:42.091Z,1001.38
2023-01-05T01:29:42.118Z,1001.30
2023-01-05T01:30:42.201Z,1001.38
2023-01-05T01:31:42.061Z,1001.38
2023-01-05T01:32:42.074Z,1001.36
2023-01-05T01:33:42.068Z,1001.37
2023-01-05T01:34:43.746Z,1001.50
2023-01-05T01:35:42.031Z,1001.33
2023-01-05T01:36:42.001Z,1001.27
2023-01-05T01:37:42.052Z,1001.33
2023-01-05T01:38:42.627Z,1001.31
2023-01-05T01:39:41.988Z,1001.26
2023-01-05T01:40:41.961Z,1001.33
2023-01-05T01:41:41.955Z,1001.29
2023-01-05T01:42:41.940Z,1001.26
2023-01-05T01:43:41.926Z,1001.26
2023-01-05T01:44:41.941Z,1001.34
2023-01-05T01:45:41.938Z,1001.31
2023-01-05T01:46:41.895Z,1001.33
2023-01-05T01:47:41.887Z,1001.25
2023-01-05T01:48:41.873Z,1001.26
2023-01-05T01:49:41.904Z,1001.41
2023-01-05T01:50:41.894Z,1001.30
2023-01-05T01:51:41.858Z,1001.33
2023-01-05T01:52:41.878Z,1001.33
2023-01-05T01:53:41.821Z,1001.30
2023-01-05T01:54:41.804Z,1001.38
2023-01-05T01:55:41.789Z,1001.33
2023-01-05T01:56:41.783Z,1001.35
2023-01-05T01:57:41.812Z,1001.30
2023-01-05T01:58:41.782Z,1001.26
2023-01-05T01:59:41.750Z,1001.32
2023-01-05T02:00:41.748Z,1001.37
2023-01-05T02:01:41.850Z,1001.23
2023-01-05T02:02:41.752Z,1001.33
2023-01-05T02:03:41.743Z,1001.32
2023-01-05T02:04:41.758Z,1001.28
2023-01-05T02:05:41.696Z,1001.29
2023-01-05T02:06:41.689Z,1001.32
2023-01-05T02:07:41.684Z,1001.26
2023-01-05T02:08:41.658Z,1001.29
2023-01-05T02:09:41.648Z,1001.31
2023-01-05T02:10:41.643Z,1001.28
2023-01-05T02:11:41.627Z,1001.37
2023-01-05T02:12:41.619Z,1001.30
2023-01-05T02:13:41.648Z,1001.30
2023-01-05T02:14:41.589Z,1001.38
2023-01-05T02:15:41.571Z,1001.29
2023-01-05T02:16:41.572Z,1001.27
2023-01-05T02:17:41.623Z,1001.30
2023-01-05T02:18:41.546Z,1001.28
2023-01-05T02:19:41.552Z,1001.38
2023-01-05T02:20:41.523Z,1001.30
2023-01-05T02:21:41.516Z,1001.20
2023-01-05T02:22:41.561Z,1001.29
2023-01-05T02:23:41.525Z,1001.27
2023-01-05T02:24:41.532Z,1001.26
2023-01-05T02:25:41.479Z,1001.22
2023-01-05T02:26:41.462Z,1001.13
2023-01-05T02:27:41.447Z,1001.10
2023-01-05T02:28:41.439Z,1001.30
2023-01-05T02:29:41.448Z,1001.09
2023-01-05T02:30:41.446Z,1001.11
2023-01-05T02:31:41.421Z,1001.14
2023-01-05T02:32:41.410Z,1001.14
2023-01-05T02:33:41.386Z,1001.14
2023-01-05T02:34:41.380Z,1001.10
2023-01-05T02:35:41.358Z,1001.15
2023-01-05T02:36:41.385Z,1001.12
2023-01-05T02:37:41.340Z,1001.16
2023-01-05T02:38:41.353Z,1001.06
2023-01-05T02:39:41.321Z,1001.16
2023-01-05T02:40:41.302Z,1001.10
2023-01-05T02:41:41.299Z,1001.09
2023-01-05T02:42:41.708Z,1001.08
2023-01-05T02:43:41.282Z,1001.05
2023-01-05T02:44:41.291Z,1001.01
2023-01-05T02:45:41.298Z,1001.14
2023-01-05T02:46:41.245Z,1001.06
2023-01-05T02:47:41.233Z,1001.06
2023-01-05T02:48:41.226Z,1001.05
2023-01-05T02:49:41.247Z,1001.29
2023-01-05T02:50:41.207Z,1001.12
2023-01-05T02:51:41.187Z,1000.96
2023-01-05T02:52:41.180Z,1001.06
2023-01-05T02:53:42.433Z,1001.17
2023-01-05T02:54:41.323Z,1001.10
2023-01-05T02:55:41.171Z,1001.09
2023-01-05T02:56:41.140Z,1001.13
2023-01-05T02:57:41.119Z,1001.10
2023-01-05T02:58:41.141Z,1001.04
2023-01-05T02:59:41.125Z,1001.16
2023-01-05T03:00:41.102Z,1001.09
2023-01-05T03:01:41.209Z,1001.01
2023-01-05T03:02:41.242Z,1001.09
2023-01-05T03:03:41.166Z,1001.17
2023-01-05T03:04:41.055Z,1001.23
2023-01-05T03:05:41.039Z,1001.20
2023-01-05T03:06:41.025Z,1001.15
2023-01-05T03:07:41.018Z,1001.17
2023-01-05T03:08:41.016Z,1001.24
2023-01-05T03:09:41.013Z,1001.17
2023-01-05T03:10:41.019Z,1001.19
2023-01-05T03:11:40.972Z,1001.12
2023-01-05T03:12:40.981Z,1001.26
2023-01-05T03:13:40.944Z,1001.19
2023-01-05T03:14:40.938Z,1001.14
2023-01-05T03:15:40.977Z,1001.14
2023-01-05T03:16:40.965Z,1001.15
2023-01-05T03:17:40.965Z,1001.14
2023-01-05T03:18:40.889Z,1001.16
2023-01-05T03:19:40.907Z,1001.16
2023-01-05T03:20:40.914Z,1001.18
2023-01-05T03:21:40.870Z,1001.26
2023-01-05T03:22:40.853Z,1001.12
2023-01-05T03:23:40.841Z,1001.18
2023-01-05T03:24:40.825Z,1001.18
2023-01-05T03:25:40.816Z,1001.27
2023-01-05T03:26:40.854Z,1001.27
2023-01-05T03:27:40.804Z,1001.29
2023-01-05T03:28:40.823Z,1001.29
2023-01-05T03:29:40.771Z,1001.17
2023-01-05T03:30:40.804Z,1001.22
2023-01-05T03:31:40.758Z,1001.17
2023-01-05T03:32:41.276Z,1001.18
2023-01-05T03:33:40.736Z,1001.32
2023-01-05T03:34:40.737Z,1001.16
2023-01-05T03:35:40.737Z,1001.28
2023-01-05T03:36:40.699Z,1001.15
2023-01-05T03:37:40.694Z,1001.21
2023-01-05T03:38:40.672Z,1001.18
2023-01-05T03:39:40.673Z,1001.37
2023-01-05T03:40:40.669Z,1001.21
2023-01-05T03:41:40.651Z,1001.17
2023-01-05T03:42:40.666Z,1001.21
2023-01-05T03:43:40.626Z,1001.17
2023-01-05T03:44:40.611Z,1001.20
2023-01-05T03:45:40.597Z,1001.06
2023-01-05T03:46:40.735Z,1001.15
2023-01-05T03:47:40.588Z,1001.07
2023-01-05T03:48:40.601Z,1001.13
2023-01-05T03:49:40.561Z,1001.25
2023-01-05T03:50:40.564Z,1001.19
2023-01-05T03:51:42.148Z,1001.22
2023-01-05T03:52:40.527Z,1001.19
2023-01-05T03:53:40.562Z,1001.24
2023-01-05T03:54:40.501Z,1001.19
2023-01-05T03:55:40.495Z,1001.21
2023-01-05T03:56:40.497Z,1001.28
2023-01-05T03:57:40.473Z,1001.20
2023-01-05T03:58:40.500Z,1001.20
2023-01-05T03:59:40.449Z,1001.23
2023-01-05T04:00:40.440Z,1001.30
2023-01-05T04:01:40.636Z,1001.28
2023-01-05T04:02:40.628Z,1001.29
2023-01-05T04:03:40.444Z,1001.10
2023-01-05T04:04:41.155Z,1001.36
2023-01-05T04:05:40.439Z,1001.31
2023-01-05T04:06:40.371Z,1001.32
2023-01-05T04:07:40.416Z,1001.44
2023-01-05T04:08:40.382Z,1001.35
2023-01-05T04:09:40.364Z,1001.31
2023-01-05T04:10:40.332Z,1001.30
2023-01-05T04:11:40.327Z,1001.34
2023-01-05T04:12:40.312Z,1001.32
2023-01-05T04:13:40.308Z,1001.41
2023-01-05T04:14:40.312Z,1001.42
2023-01-05T04:15:40.339Z,1001.37
2023-01-05T04:16:40.339Z,1001.52
2023-01-05T04:17:40.254Z,1001.39
2023-01-05T04:18:40.248Z,1001.45
2023-01-05T04:19:40.251Z,1001.49
2023-01-05T04:20:40.222Z,1001.53
2023-01-05T04:21:40.223Z,1001.57
2023-01-05T04:22:40.193Z,1001.62
2023-01-05T04:23:40.199Z,1001.52
2023-01-05T04:24:40.181Z,1001.48
2023-01-05T04:25:40.159Z,1001.45
2023-01-05T04:26:40.166Z,1001.48
2023-01-05T04:27:40.141Z,1001.49
2023-01-05T04:28:40.132Z,1001.53
2023-01-05T04:29:40.115Z,1001.56
2023-01-05T04:30:40.120Z,1001.53
2023-01-05T04:31:40.165Z,1001.63
2023-01-05T04:32:40.099Z,1001.54
2023-01-05T04:33:40.078Z,1001.64
2023-01-05T04:34:40.075Z,1001.59
2023-01-05T04:35:40.076Z,1001.66
2023-01-05T04:36:40.057Z,1001.62
2023-01-05T04:37:40.103Z,1001.68
2023-01-05T04:38:40.040Z,1001.66
2023-01-05T04:39:40.013Z,1001.67
2023-01-05T04:40:39.998Z,1001.59
2023-01-05T04:41:40.010Z,1001.66
2023-01-05T04:42:39.995Z,1001.64
2023-01-05T04:43:39.966Z,1001.81
2023-01-05T04:44:39.963Z,1001.79
2023-01-05T04:45:39.944Z,1001.72
2023-01-05T04:46:40.013Z,1001.69
2023-01-05T04:47:39.988Z,1001.73
2023-01-05T04:48:39.916Z,1001.76
2023-01-05T04:49:39.922Z,1001.73
2023-01-05T04:50:39.896Z,1001.65
2023-01-05T04:51:39.881Z,1001.74
2023-01-05T04:52:39.883Z,1001.89
2023-01-05T04:53:39.891Z,1001.85
2023-01-05T04:54:39.893Z,1001.91
2023-01-05T04:55:39.872Z,1001.91
2023-01-05T04:56:39.834Z,1001.92
2023-01-05T04:57:39.820Z,1001.96
2023-01-05T04:58:39.853Z,1001.98
2023-01-05T04:59:39.809Z,1001.97
2023-01-05T05:00:39.782Z,1001.90
2023-01-05T05:01:39.915Z,1001.98
2023-01-05T05:02:40.060Z,1001.91
2023-01-05T05:03:39.773Z,1001.91
2023-01-05T05:04:39.783Z,1001.97
2023-01-05T05:05:39.732Z,1001.92
2023-01-05T05:06:39.731Z,1001.95
2023-01-05T05:07:39.735Z,1001.89
2023-01-05T05:08:39.706Z,1001.90
2023-01-05T05:09:39.689Z,1001.98
2023-01-05T05:10:39.686Z,1002.03
2023-01-05T05:11:39.673Z,1001.96
2023-01-05T05:12:39.690Z,1002.01
2023-01-05T05:13:39.662Z,1002.06
2023-01-05T05:14:39.656Z,1002.05
2023-01-05T05:15:39.704Z,1002.04
2023-01-05T05:16:39.616Z,1002.11
2023-01-05T05:17:39.648Z,1002.13
2023-01-05T05:18:39.629Z,1002.07
2023-01-05T05:19:39.581Z,1002.12
2023-01-05T05:20:39.565Z,1002.10
2023-01-05T05:21:39.564Z,1002.07
2023-01-05T05:22:39.552Z,1002.07
2023-01-05T05:23:39.593Z,1002.06
2023-01-05T05:24:39.528Z,1002.21
2023-01-05T05:25:39.507Z,1002.21
2023-01-05T05:26:39.504Z,1002.16
2023-01-05T05:27:39.497Z,1002.13
2023-01-05T05:28:39.485Z,1002.07
2023-01-05T05:29:39.518Z,1002.07
2023-01-05T05:30:39.467Z,1002.10
2023-01-05T05:31:39.492Z,1002.00
2023-01-05T05:32:43.990Z,1002.06
2023-01-05T05:33:40.438Z,1002.11
2023-01-05T05:34:39.463Z,1001.99
2023-01-05T05:35:39.427Z,1002.02
2023-01-05T05:36:39.396Z,1002.05
2023-01-05T05:37:39.376Z,1002.13
2023-01-05T05:38:39.447Z,1002.01
2023-01-05T05:39:39.368Z,1002.04
2023-01-05T05:40:39.344Z,1002.03
2023-01-05T05:41:39.346Z,1002.05
2023-01-05T05:42:39.357Z,1002.14
2023-01-05T05:43:39.315Z,1002.10
2023-01-05T05:44:39.410Z,1002.02
2023-01-05T05:45:40.219Z,1001.94
2023-01-05T05:46:39.333Z,1002.05
2023-01-05T05:47:39.332Z,1001.98
2023-01-05T05:48:39.298Z,1001.98
2023-01-05T05:49:39.315Z,1001.93
2023-01-05T05:50:39.270Z,1002.05
2023-01-05T05:51:39.238Z,1001.96
2023-01-05T05:52:39.216Z,1001.95
2023-01-05T05:53:39.200Z,1001.98
2023-01-05T05:54:39.201Z,1001.95
2023-01-05T05:55:39.224Z,1002.00
2023-01-05T05:56:39.190Z,1001.95
2023-01-05T05:57:39.162Z,1001.92
2023-01-05T05:58:39.152Z,1002.03
2023-01-05T05:59:39.152Z,1002.08
2023-01-05T06:00:39.126Z,1002.17
2023-01-05T06:01:39.281Z,1002.18
2023-01-05T06:02:39.279Z,1002.22
2023-01-05T06:03:39.123Z,1002.44
2023-01-05T06:04:39.110Z,1002.39
2023-01-05T06:05:39.122Z,1002.41
2023-01-05T06:06:39.133Z,1002.61
2023-01-05T06:07:39.093Z,1002.46
2023-01-05T06:08:39.053Z,1002.63
2023-01-05T06:09:39.050Z,1002.50
2023-01-05T06:10:39.025Z,1002.59
2023-01-05T06:11:39.018Z,1002.57
2023-01-05T06:12:39.023Z,1002.60
2023-01-05T06:13:38.983Z,1002.62
2023-01-05T06:14:39.000Z,1002.64
2023-01-05T06:15:38.991Z,1002.71
2023-01-05T06:16:39.009Z,1002.60
2023-01-05T06:17:39.014Z,1002.61
2023-01-05T06:18:38.968Z,1002.50
2023-01-05T06:19:38.961Z,1002.37
2023-01-05T06:20:38.957Z,1002.42
2023-01-05T06:21:38.953Z,1002.45
2023-01-05T06:22:38.908Z,1002.48
2023-01-05T06:23:39.042Z,1002.56
2023-01-05T06:24:48.264Z,1002.73
2023-01-05T06:25:38.861Z,1002.65
2023-01-05T06:26:38.885Z,1002.68
2023-01-05T06:27:38.835Z,1002.64
2023-01-05T06:28:38.858Z,1002.60
2023-01-05T06:29:38.835Z,1002.52
2023-01-05T06:30:38.805Z,1002.49
2023-01-05T06:31:38.864Z,1002.50
2023-01-05T06:32:38.789Z,1002.58
2023-01-05T06:33:38.785Z,1002.60
2023-01-05T06:34:38.791Z,1002.59
2023-01-05T06:35:38.753Z,1002.57
2023-01-05T06:36:38.757Z,1002.59
2023-01-05T06:37:38.731Z,1002.44
2023-01-05T06:38:38.748Z,1002.51
2023-01-05T06:39:38.716Z,1002.59
2023-01-05T06:40:38.734Z,1002.64
2023-01-05T06:41:38.690Z,1002.61
2023-01-05T06:42:38.684Z,1002.70
2023-01-05T06:43:38.659Z,1002.79
2023-01-05T06:44:38.667Z,1002.72
2023-01-05T06:45:38.757Z,1002.85
2023-01-05T06:46:38.635Z,1002.76
2023-01-05T06:47:38.629Z,1002.75
2023-01-05T06:48:38.631Z,1002.77
2023-01-05T06:49:38.596Z,1002.75
2023-01-05T06:50:38.602Z,1002.80
2023-01-05T06:51:38.576Z,1002.85
2023-01-05T06:52:38.573Z,1002.77
2023-01-05T06:53:38.582Z,1002.86
2023-01-05T06:54:38.588Z,1002.89
2023-01-05T06:55:38.543Z,1002.85
2023-01-05T06:56:38.525Z,1002.93
2023-01-05T06:57:38.526Z,1002.90
2023-01-05T06:58:38.509Z,1002.99
2023-01-05T06:59:38.501Z,1002.91
2023-01-05T07:00:38.495Z,1003.02
2023-01-05T07:01:38.621Z,1002.96
2023-01-05T07:02:38.465Z,1003.03
2023-01-05T07:03:38.566Z,1003.07
2023-01-05T07:04:38.471Z,1003.03
2023-01-05T07:05:38.444Z,1002.99
2023-01-05T07:06:38.423Z,1003.22
2023-01-05T07:07:38.419Z,1003.03
2023-01-05T07:08:38.403Z,1003.11
2023-01-05T07:09:38.387Z,1002.96
2023-01-05T07:10:38.442Z,1003.11
2023-01-05T07:11:38.369Z,1002.99
2023-01-05T07:12:38.353Z,1002.98
2023-01-05T07:13:38.338Z,1003.06
2023-01-05T07:14:38.377Z,1002.97
2023-01-05T07:15:38.317Z,1003.21
2023-01-05T07:16:39.246Z,1003.08
2023-01-05T07:17:38.302Z,1003.11
2023-01-05T07:18:38.282Z,1003.12
2023-01-05T07:19:38.277Z,1003.11
2023-01-05T07:20:38.264Z,1003.08
2023-01-05T07:21:38.256Z,1003.10
2023-01-05T07:22:38.376Z,1003.18
2023-01-05T07:23:38.238Z,1003.14
2023-01-05T07:24:38.223Z,1003.12
2023-01-05T07:25:38.226Z,1003.18
2023-01-05T07:26:38.212Z,1003.15
2023-01-05T07:27:38.212Z,1003.13
2023-01-05T07:28:38.232Z,1003.19
2023-01-05T07:29:38.177Z,1003.21
2023-01-05T07:30:38.155Z,1003.12
2023-01-05T07:31:38.202Z,1003.23
2023-01-05T07:32:38.137Z,1003.23
2023-01-05T07:33:40.292Z,1003.25
2023-01-05T07:34:38.115Z,1003.23
2023-01-05T07:35:38.101Z,1003.30
2023-01-05T07:36:38.105Z,1003.23
2023-01-05T07:37:38.082Z,1003.33
2023-01-05T07:38:38.111Z,1003.35
2023-01-05T07:39:38.086Z,1003.28
2023-01-05T07:40:38.048Z,1003.34
2023-01-05T07:41:38.037Z,1003.35
2023-01-05T07:42:38.057Z,1003.31
2023-01-05T07:43:38.025Z,1003.40
2023-01-05T07:44:38.021Z,1003.44
2023-01-05T07:45:38.158Z,1003.41
2023-01-05T07:46:37.989Z,1003.45
2023-01-05T07:47:37.977Z,1003.43
2023-01-05T07:48:37.975Z,1003.46
2023-01-05T07:49:37.989Z,1003.53
2023-01-05T07:50:37.939Z,1003.54
2023-01-05T07:51:37.939Z,1003.48
2023-01-05T07:52:37.922Z,1003.48
2023-01-05T07:53:43.936Z,1003.61
2023-01-05T07:54:38.920Z,1003.63
2023-01-05T07:55:37.913Z,1003.53
2023-01-05T07:56:37.871Z,1003.53
2023-01-05T07:57:37.876Z,1003.68
2023-01-05T07:58:37.866Z,1003.53
2023-01-05T07:59:37.854Z,1003.71
2023-01-05T08:00:37.826Z,1003.60
2023-01-05T08:01:37.965Z,1003.68
2023-01-05T08:02:37.873Z,1003.68
2023-01-05T08:03:37.799Z,1003.58
2023-01-05T08:04:37.840Z,1003.82
2023-01-05T08:05:37.790Z,1003.71
2023-01-05T08:06:37.776Z,1003.69
2023-01-05T08:07:37.743Z,1003.82
2023-01-05T08:08:37.758Z,1003.82
2023-01-05T08:09:37.739Z,1003.83
2023-01-05T08:10:37.718Z,1003.84
2023-01-05T08:11:37.708Z,1003.82
2023-01-05T08:12:37.714Z,1003.88
2023-01-05T08:13:37.694Z,1003.93
2023-01-05T08:14:37.688Z,1003.89
2023-01-05T08:15:37.664Z,1003.97
2023-01-05T08:16:37.771Z,1003.96
2023-01-05T08:17:37.666Z,1004.06
2023-01-05T08:18:37.634Z,1004.01
2023-01-05T08:19:37.620Z,1004.08
2023-01-05T08:20:37.617Z,1004.02
2023-01-05T08:21:37.599Z,1004.18
2023-01-05T08:22:37.606Z,1004.02
2023-01-05T08:23:37.586Z,1004.05
2023-01-05T08:24:37.587Z,1004.09
2023-01-05T08:25:37.561Z,1004.11
2023-01-05T08:26:37.608Z,1004.16
2023-01-05T08:27:37.578Z,1004.24
2023-01-05T08:28:37.526Z,1004.15
2023-01-05T08:29:37.589Z,1004.22
2023-01-05T08:30:37.541Z,1004.30
2023-01-05T08:31:37.857Z,1004.11
2023-01-05T08:32:37.487Z,1004.25
2023-01-05T08:33:37.487Z,1004.18
2023-01-05T08:34:37.465Z,1004.11
2023-01-05T08:35:37.445Z,1004.17
2023-01-05T08:36:37.441Z,1004.25
2023-01-05T08:37:37.423Z,1004.28
2023-01-05T08:38:37.432Z,1004.39
2023-01-05T08:39:37.406Z,1004.28
2023-01-05T08:40:37.400Z,1004.22
2023-01-05T08:41:37.392Z,1004.24
2023-01-05T08:42:37.380Z,1004.19
2023-01-05T08:43:37.380Z,1004.11
2023-01-05T08:44:37.375Z,1004.18
2023-01-05T08:45:37.364Z,1004.18
2023-01-05T08:46:37.348Z,1004.16
2023-01-05T08:47:37.320Z,1004.26
2023-01-05T08:48:37.324Z,1004.21
2023-01-05T08:49:37.335Z,1004.25
2023-01-05T08:50:37.294Z,1004.42
2023-01-05T08:51:37.277Z,1004.35
2023-01-05T08:52:37.263Z,1004.32
2023-01-05T08:53:37.250Z,1004.29
2023-01-05T08:54:37.247Z,1004.33
2023-01-05T08:55:37.277Z,1004.23
2023-01-05T08:56:39.299Z,1004.31
2023-01-05T08:57:37.218Z,1004.37
2023-01-05T08:58:37.196Z,1004.27
2023-01-05T08:59:37.210Z,1004.28
2023-01-05T09:00:37.171Z,1004.26
2023-01-05T09:01:37.365Z,1004.37
2023-01-05T09:02:37.375Z,1004.43
2023-01-05T09:03:37.226Z,1004.52
2023-01-05T09:04:37.137Z,1004.60
2023-01-05T09:05:37.127Z,1004.62
2023-01-05T09:06:37.121Z,1004.53
2023-01-05T09:07:37.095Z,1004.49
2023-01-05T09:08:37.089Z,1004.42
2023-01-05T09:09:37.132Z,1004.48
2023-01-05T09:10:37.079Z,1004.41
2023-01-05T09:11:37.087Z,1004.51
2023-01-05T09:12:37.041Z,1004.75
2023-01-05T09:13:37.035Z,1004.59
2023-01-05T09:14:37.021Z,1004.62
2023-01-05T09:15:37.026Z,1004.70
2023-01-05T09:17:38.036Z,1004.65
2023-01-05T09:18:36.984Z,1004.61
2023-01-05T09:19:36.962Z,1004.76
2023-01-05T09:20:40.014Z,1004.60
2023-01-05T09:21:36.955Z,1004.77
2023-01-05T09:22:36.938Z,1004.67
2023-01-05T09:23:36.921Z,1004.82
2023-01-05T09:24:36.920Z,1004.82
2023-01-05T09:25:36.950Z,1004.75
2023-01-05T09:26:36.900Z,1004.75
2023-01-05T09:27:36.884Z,1004.83
2023-01-05T09:28:36.865Z,1004.71
2023-01-05T09:29:36.862Z,1004.92
2023-01-05T09:30:44.367Z,1004.93
2023-01-05T09:31:37.899Z,1004.87
2023-01-05T09:32:36.819Z,1004.95
2023-01-05T09:33:36.809Z,1004.94
2023-01-05T09:34:36.907Z,1005.05
2023-01-05T09:35:36.788Z,1005.05
2023-01-05T09:36:36.781Z,1005.07
2023-01-05T09:37:36.909Z,1005.05
2023-01-05T09:38:39.667Z,1005.07
2023-01-05T09:39:37.748Z,1004.99
2023-01-05T09:40:36.731Z,1005.01
2023-01-05T09:41:36.723Z,1005.05
2023-01-05T09:42:36.706Z,1005.10
2023-01-05T09:43:36.710Z,1005.11
2023-01-05T09:44:36.721Z,1005.27
2023-01-05T09:45:36.699Z,1005.14
2023-01-05T09:46:36.751Z,1005.15
2023-01-05T09:47:36.687Z,1005.19
2023-01-05T09:48:36.647Z,1005.40
2023-01-05T09:49:36.650Z,1005.22
2023-01-05T09:50:36.734Z,1005.38
2023-01-05T09:51:36.623Z,1005.27
2023-01-05T09:52:38.656Z,1005.29
2023-01-05T09:53:36.629Z,1005.29
2023-01-05T09:54:36.635Z,1005.37
2023-01-05T09:55:36.580Z,1005.36
2023-01-05T09:57:37.562Z,1005.41
2023-01-05T09:58:36.542Z,1005.44
2023-01-05T09:59:36.533Z,1005.35
2023-01-05T10:00:36.531Z,1005.37
2023-01-05T10:01:36.526Z,1005.48
2023-01-05T10:02:36.515Z,1005.36
2023-01-05T10:04:03.202Z,1005.40
2023-01-05T10:04:37.634Z,1005.51
2023-01-05T10:05:36.558Z,1005.34
2023-01-05T10:06:36.561Z,1005.49
2023-01-05T10:07:36.441Z,1005.51
2023-01-05T10:08:36.426Z,1005.47
2023-01-05T10:09:36.428Z,1005.72
2023-01-05T10:10:36.440Z,1005.35
2023-01-05T10:11:36.395Z,1005.27
2023-01-05T10:12:36.391Z,1005.63
2023-01-05T10:13:36.369Z,1005.34
2023-01-05T10:14:36.382Z,1005.56
2023-01-05T10:15:36.493Z,1005.62
2023-01-05T10:16:36.411Z,1005.57
2023-01-05T10:17:41.924Z,1005.55
2023-01-05T10:18:37.318Z,1005.65
2023-01-05T10:19:36.312Z,1005.64
2023-01-05T10:20:36.316Z,1005.51
2023-01-05T10:21:36.305Z,1005.46
2023-01-05T10:22:38.822Z,1005.56
2023-01-05T10:23:36.263Z,1005.52
2023-01-05T10:24:36.255Z,1005.65
2023-01-05T10:25:36.238Z,1005.62
2023-01-05T10:27:06.448Z,1005.57
2023-01-05T10:27:37.237Z,1005.63
2023-01-05T10:28:36.212Z,1005.69
2023-01-05T10:29:36.200Z,1005.58
2023-01-05T10:30:36.192Z,1005.59
2023-01-05T10:31:36.231Z,1005.64
2023-01-05T10:32:49.065Z,1005.66
2023-01-05T10:33:41.511Z,1005.73
2023-01-05T10:34:37.146Z,1005.68
2023-01-05T10:36:00.187Z,1005.72
2023-01-05T10:37:08.061Z,1005.78
2023-01-05T10:37:37.124Z,1005.76
2023-01-05T10:38:36.349Z,1005.78
2023-01-05T10:39:36.088Z,1005.72
2023-01-05T10:40:36.073Z,1005.78
2023-01-05T10:41:36.077Z,1005.72
2023-01-05T10:42:36.070Z,1005.74
2023-01-05T10:43:36.082Z,1005.73
2023-01-05T10:44:36.055Z,1005.86
2023-01-05T10:45:46.062Z,1005.69
2023-01-05T10:46:41.994Z,1005.71
2023-01-05T10:47:36.073Z,1005.75
2023-01-05T10:48:35.995Z,1005.65
2023-01-05T10:49:35.978Z,1005.78
2023-01-05T10:50:35.994Z,1005.77
2023-01-05T10:51:35.952Z,1005.71
2023-01-05T10:52:35.985Z,1005.85
2023-01-05T10:53:35.936Z,1005.73
2023-01-05T10:54:36.045Z,1005.77
2023-01-05T10:55:35.917Z,1005.85
2023-01-05T10:56:35.957Z,1005.75
2023-01-05T10:57:37.004Z,1005.69
2023-01-05T10:58:35.908Z,1005.73
2023-01-05T10:59:35.929Z,1005.70
2023-01-05T11:00:35.862Z,1005.79
2023-01-05T11:01:35.910Z,1005.73
2023-01-05T11:02:36.031Z,1005.78
2023-01-05T11:04:14.801Z,1005.81
2023-01-05T11:04:36.931Z,1005.72
2023-01-05T11:05:35.915Z,1005.85
2023-01-05T11:06:35.791Z,1005.76
2023-01-05T11:07:35.827Z,1005.63
2023-01-05T11:08:35.768Z,1005.97
2023-01-05T11:09:35.756Z,1005.85
2023-01-05T11:10:35.859Z,1005.81
2023-01-05T11:11:35.736Z,1005.90
2023-01-05T11:12:35.719Z,1005.99
2023-01-05T11:13:35.747Z,1005.98
2023-01-05T11:14:35.708Z,1005.98
2023-01-05T11:15:35.793Z,1005.97
2023-01-05T11:16:35.675Z,1005.99
2023-01-05T11:17:35.663Z,1005.94
2023-01-05T11:18:35.655Z,1005.95
2023-01-05T11:19:35.672Z,1005.98
2023-01-05T11:20:35.636Z,1006.15
2023-01-05T11:21:35.621Z,1005.88
2023-01-05T11:22:35.631Z,1006.03
2023-01-05T11:23:35.629Z,1005.99
2023-01-05T11:24:35.620Z,1006.01
2023-01-05T11:25:35.598Z,1006.03
2023-01-05T11:26:35.682Z,1006.03
2023-01-05T11:27:35.563Z,1006.06
2023-01-05T11:28:35.561Z,1006.07
2023-01-05T11:29:35.565Z,1006.04
2023-01-05T11:30:35.616Z,1006.09
2023-01-05T11:31:35.632Z,1006.08
2023-01-05T11:32:35.541Z,1006.08
2023-01-05T11:33:35.545Z,1006.09
2023-01-05T11:34:35.553Z,1006.15
2023-01-05T11:35:35.478Z,1006.06
2023-01-05T11:36:35.465Z,1006.21
2023-01-05T11:37:35.536Z,1006.18
2023-01-05T11:38:35.445Z,1006.28
2023-01-05T11:39:35.438Z,1006.18
2023-01-05T11:40:35.441Z,1006.22
2023-01-05T11:41:35.410Z,1005.98
2023-01-05T11:42:35.551Z,1006.26
2023-01-05T11:43:35.380Z,1006.26
2023-01-05T11:44:35.377Z,1006.16
2023-01-05T11:45:35.398Z,1006.33
2023-01-05T11:46:35.444Z,1006.30
2023-01-05T11:47:41.451Z,1006.24
2023-01-05T11:48:36.329Z,1006.32
2023-01-05T11:49:35.316Z,1006.23
2023-01-05T11:50:35.346Z,1006.36
2023-01-05T11:51:35.298Z,1006.39
2023-01-05T11:52:35.292Z,1006.39
2023-01-05T11:53:35.300Z,1006.45
2023-01-05T11:54:35.268Z,1006.38
2023-01-05T11:55:35.261Z,1006.38
2023-01-05T11:56:35.280Z,1006.40
2023-01-05T11:57:35.223Z,1006.59
2023-01-05T11:58:35.233Z,1006.48
2023-01-05T11:59:35.202Z,1006.42
2023-01-05T12:00:35.313Z,1006.50
2023-01-05T12:01:35.225Z,1006.46
2023-01-05T12:02:35.220Z,1006.49
2023-01-05T12:03:35.224Z,1006.55
2023-01-05T12:04:35.228Z,1006.65
2023-01-05T12:05:35.145Z,1006.71
2023-01-05T12:06:35.153Z,1006.78
2023-01-05T12:07:35.127Z,1006.75